To NAV CANADA Home Page Login to a new session Search on AWWS site Disclaimer Vers la page française équivalente Tips FAQ What's new on the site To the Forecasts and Observations / NOTAM section To "File a Flight Plan" website Publications and other links Update of the User's profile FIC Telephone Numbers My Weather Data Folder Route Weather Data Regional Weather Data Local Weather Data To the Forecasts and Observations / NOTAM section
Request Generated 03/19/2019 at 23:06:31 UTC . Weather information available at that time is displayed.

METAR/TAF

SASKATOON/JOHN G. DIEFENBAKER INTL/SK    

METAR CYXE 192300Z 28008KT 15SM FEW280 06/01 A3005 RMK CI1 SLP201=
METAR CYXE 192200Z 29011KT 15SM FEW280 07/01 A3004 RMK CI1 SLP200=
METAR CYXE 192100Z 28013KT 15SM SCT280 06/00 A3004 RMK CI3 SLP200=

TAF CYXE 191738Z 1918/2018 24010KT P6SM SCT240
BECMG 1918/1920 29010KT
BECMG 2004/2006 22005KT
RMK NXT FCST BY 200000Z=
Your time UTC time
Weather data provided by Environment Canada and NAV CANADA